Flight Track Log - Related Links

Times and Time Zones

All times are in EDT time to prevent confusion due to time zone crossing. See the EJA922 flight status page for this flight to view local times or setup timezone preferences in your user account.

Time Position Orientation Groundspeed Altitude Reporting Facility
EDT Latitude Longitude Course Direction KTS km/h feet Rate Location/Type
Tue 17:32:05 34.1500 -118.3667 59° Northeast 214 396 3,400  Level Southern California TRACON
Tue 17:33:03 34.1517 -118.4278 272° West 234 433 5,400 2,300 Climbing Los Angeles Center
Tue 17:34:05 34.2303 -118.4206 North 251 465 8,000 2,129 Climbing Los Angeles Center
Tue 17:35:07 34.3061 -118.3911 18° North 280 518 9,800 1,645 Climbing Los Angeles Center
Tue 17:36:09 34.3894 -118.3597 17° North 309 573 11,400 1,500 Climbing Los Angeles Center
Tue 17:37:00 34.5771 -118.1292 59° Northeast  Level FlightAware Approximate
Tue 17:37:11 34.4783 -118.3108 24° Northeast 346 641 12,900  Level Los Angeles Center
Tue 17:38:13 34.5411 -118.2114 53° Northeast 368 681 14,500 1,577 Climbing Los Angeles Center
Tue 17:39:28 34.6094 -118.0992 53° Northeast 377 698 16,500 1,620 Climbing Los Angeles Center
Tue 17:40:30 34.6431 -117.9561 74° East 375 695 18,200 1,452 Climbing Los Angeles Center
Tue 17:41:32 34.6703 -117.8300 75° East 387 716 19,500 1,210 Climbing Los Angeles Center
Tue 17:42:34 34.7000 -117.7033 74° East 393 727 20,700 1,210 Climbing Los Angeles Center
Tue 17:43:36 34.7372 -117.5458 74° East 406 752 22,000 1,258 Climbing Los Angeles Center
Tue 17:44:38 34.7683 -117.4131 74° East 412 763 23,300 1,104 Climbing Los Angeles Center
Tue 17:45:41 34.7986 -117.2789 75° East 415 769 24,300 960 Climbing Los Angeles Center
Tue 17:46:43 34.8303 -117.1433 74° East 421 779 25,300 1,065 Climbing Los Angeles Center
Tue 17:47:45 34.8700 -116.9769 74° East 428 793 26,500 968 Climbing Los Angeles Center
Tue 17:48:47 34.9017 -116.8361 75° East 433 801 27,300 919 Climbing Los Angeles Center
Tue 17:49:49 34.9350 -116.6928 74° East 439 813 28,400 1,065 Climbing Los Angeles Center
Tue 17:50:51 34.9811 -116.5542 68° East 445 824 29,500 976 Climbing Los Angeles Center
Tue 17:51:52 35.0503 -116.4656 46° Northeast 453 838 30,400 1,016 Climbing Los Angeles Center
Tue 17:52:55 35.1572 -116.3317 46° Northeast 457 847 31,600 1,152 Climbing Los Angeles Center
Tue 17:53:57 35.2658 -116.1950 46° Northeast 466 863 32,800 1,113 Climbing Los Angeles Center
Tue 17:54:59 35.3569 -116.0803 46° Northeast 471 872 33,900 1,065 Climbing Los Angeles Center
Tue 17:56:01 35.4494 -115.9642 46° Northeast 476 882 35,000 1,171 Climbing Los Angeles Center
Tue 17:57:02 35.5397 -115.8525 45° Northeast 476 882 36,300 1,512 Climbing Los Angeles Center
Tue 17:58:04 35.6489 -115.7119 46° Northeast 473 875 38,100 1,548 Climbing Los Angeles Center
Tue 17:59:06 35.7389 -115.5972 46° Northeast 469 869 39,500 1,104 Climbing Los Angeles Center
Tue 18:00:09 35.8283 -115.4828 46° Northeast 465 861 40,400 720 Climbing Los Angeles Center
Tue 18:01:11 35.9192 -115.3669 46° Northeast 471 872 41,000 290 Climbing Los Angeles Center
Tue 18:02:13 36.0114 -115.2489 46° Northeast 479 887 41,000  Level Los Angeles Center
Tue 18:03:14 36.1028 -115.0833 56° Northeast 491 909 41,000  Level Los Angeles Center
Tue 18:04:16 36.1517 -114.9242 69° East 497 921 41,000  Level Los Angeles Center
Tue 18:05:18 36.2011 -114.7644 69° East 499 924 41,000  Level Los Angeles Center
Tue 18:06:20 36.2497 -114.6025 70° East 502 930 41,000  Level Los Angeles Center
Tue 18:07:22 36.2975 -114.4411 70° East 501 929 41,000  Level Los Angeles Center
Tue 18:08:24 36.3461 -114.2794 69° East 502 930 41,000  Level Los Angeles Center
Tue 18:09:26 36.4058 -114.0867 69° East 500 925 41,000  Level Los Angeles Center
Tue 18:10:40 36.4633 -113.8925 70° East 499 924 41,000  Level Los Angeles Center
Tue 18:11:42 36.5108 -113.7311 70° East 499 924 41,000  Level Los Angeles Center
Tue 18:12:44 36.5628 -113.5544 70° East 495 917 41,000  Level Los Angeles Center
Tue 18:13:45 36.6097 -113.3958 70° East 493 912 41,000  Level Los Angeles Center
Tue 18:14:47 36.6561 -113.2342 70° East 497 921 41,000  Level Los Angeles Center
Tue 18:15:49 36.7025 -113.0719 70° East 499 924 41,000  Level Los Angeles Center
Tue 18:16:51 36.7489 -112.9119 70° East 496 919 41,000  Level Los Angeles Center
Tue 18:17:53 36.7953 -112.7497 70° East 499 924 41,000  Level Los Angeles Center
Tue 18:18:55 36.8514 -112.5539 70° East 501 929 41,000  Level Los Angeles Center
Tue 18:19:56 36.8978 -112.3906 70° East 503 932 41,000  Level Los Angeles Center
Tue 18:21:10 36.9442 -112.2267 70° East 504 933 41,000  Level Los Angeles Center
Tue 18:22:13 36.9978 -112.0325 71° East 496 919 41,000  Level Los Angeles Center
Tue 18:23:14 37.0436 -111.8706 70° East 497 921 41,000  Level Los Angeles Center
Tue 18:24:16 37.0872 -111.7089 71° East 495 917 41,000  Level Los Angeles Center
Tue 18:25:05 37.1350 -111.5442 70° East 498 922 41,000  Level Denver Center
Tue 18:26:07 37.1747 -111.3828 73° East 493 912 41,000  Level Denver Center
Tue 18:27:09 37.2206 -111.2189 71° East 499 924 41,000  Level Denver Center
Tue 18:28:11 37.2639 -111.0553 72° East 498 922 41,000  Level Denver Center
Tue 18:29:13 37.3081 -110.8936 71° East 493 912 41,000  Level Denver Center
Tue 18:30:16 37.3533 -110.7283 71° East 498 922 41,000  Level Denver Center
Tue 18:31:18 37.4033 -110.5322 72° East 495 917 41,000  Level Denver Center
Tue 18:32:20 37.4447 -110.3672 72° East 496 919 41,000  Level Denver Center
Tue 18:33:22 37.4875 -110.2019 72° East 496 919 41,000  Level Denver Center
Tue 18:34:24 37.5361 -110.0167 72° East 497 921 41,000  Level Denver Center
Tue 18:35:26 37.5756 -109.8622 72° East 489 906 41,000  Level Denver Center
Tue 18:36:28 37.6156 -109.7044 72° East 492 911 41,000 339 Level Denver Center
Tue 18:37:30 37.6617 -109.5225 72° East 487 901 41,700 774 Climbing Denver Center
Tue 18:38:32 37.7000 -109.3697 72° East 477 884 42,600 629 Climbing Denver Center
Tue 18:39:34 37.7442 -109.1925 72° East 473 875 43,000 194 Climbing Denver Center
Tue 18:40:36 37.7825 -109.0378 73° East 479 887 43,000  Level Denver Center
Tue 18:41:38 37.8333 -108.8611 70° East 477 884 43,000  Level Denver Center
Tue 18:42:40 37.8839 -108.7114 67° East 481 892 43,000  Level Denver Center
Tue 18:43:42 37.9439 -108.5431 66° East 474 877 43,000  Level Denver Center
Tue 18:44:44 37.9947 -108.3958 66° East 476 882 43,000  Level Denver Center
Tue 18:45:47 38.0536 -108.2244 66° East 474 877 43,000  Level Denver Center
Tue 18:46:49 38.1011 -108.0850 67° East 475 880 43,000  Level Denver Center
Tue 18:47:51 38.1586 -107.9139 67° East 475 880 43,000  Level Denver Center
Tue 18:48:53 38.2078 -107.7689 67° East 470 871 43,000  Level Denver Center
Tue 18:49:55 38.2650 -107.6000 67° East 468 867 43,000  Level Denver Center
Tue 18:50:57 38.3136 -107.4550 67° East 468 867 43,000  Level Denver Center
Tue 18:51:59 38.3700 -107.2856 67° East 467 864 43,000  Level Denver Center
Tue 18:53:01 38.4200 -107.1361 67° East 462 856 43,000  Level Denver Center
Tue 18:54:03 38.4775 -106.9908 63° Northeast 462 856 43,000  Level Denver Center
Tue 18:55:05 38.5478 -106.8583 56° Northeast 454 840 43,000  Level Denver Center
Tue 18:56:07 38.6172 -106.7258 56° Northeast 451 835 43,000  Level Denver Center
Tue 18:57:09 38.6956 -106.5625 58° Northeast 450 834 43,000  Level Denver Center
Tue 18:58:11 38.7497 -106.4178 64° Northeast 451 835 43,000  Level Denver Center
Tue 18:59:15 38.8025 -106.2747 65° Northeast 448 830 43,000  Level Denver Center
Tue 19:00:17 38.8597 -106.1208 64° Northeast 442 819 43,000  Level Denver Center
Tue 19:01:19 38.9122 -105.9778 65° Northeast 444 822 43,000  Level Denver Center
Tue 19:02:21 38.9642 -105.8350 65° Northeast 444 822 43,000  Level Denver Center
Tue 19:03:23 39.0172 -105.6928 64° Northeast 442 819 43,000  Level Denver Center
Tue 19:04:25 39.0786 -105.5219 65° Northeast 441 816 43,000  Level Denver Center
Tue 19:05:27 39.1297 -105.3786 65° Northeast 442 819 43,000  Level Denver Center
Tue 19:06:29 39.1833 -105.2358 64° Northeast 445 824 43,000  Level Denver Center
Tue 19:07:31 39.2350 -105.0892 66° East 453 838 43,000  Level Denver Center
Tue 19:08:33 39.2869 -104.9450 65° Northeast 444 822 43,000  Level Denver Center
Tue 19:09:35 39.3392 -104.7964 66° East 454 840 43,000  Level Denver Center
Tue 19:10:37 39.4011 -104.6189 66° East 460 851 43,000  Level Denver Center
Tue 19:11:39 39.4522 -104.4725 66° East 457 847 43,000  Level Denver Center
Tue 19:12:41 39.5039 -104.3250 66° East 457 847 43,000  Level Denver Center
Tue 19:13:43 39.5547 -104.1775 66° East 452 837 43,000  Level Denver Center
Tue 19:14:45 39.6172 -103.9986 66° East 455 843 43,000  Level Denver Center
Tue 19:15:47 39.6678 -103.8486 66° East 454 840 43,000  Level Denver Center
Tue 19:16:49 39.7197 -103.6997 66° East 449 832 43,000  Level Denver Center
Tue 19:17:51 39.7714 -103.5483 66° East 458 848 43,000  Level Denver Center
Tue 19:18:53 39.8222 -103.3956 67° East 462 856 43,000  Level Denver Center
Tue 19:19:55 39.8833 -103.2122 66° East 464 859 43,000  Level Denver Center
Tue 19:20:58 39.9361 -103.0581 66° East 465 861 43,000  Level Denver Center
Tue 19:22:00 39.9872 -102.9028 67° East 469 869 43,000  Level Denver Center
Tue 19:23:02 40.0381 -102.7458 67° East 471 872 43,000  Level Denver Center
Tue 19:24:04 40.0928 -102.5844 66° East 472 874 43,000  Level Denver Center
Tue 19:25:06 40.1492 -102.4069 67° East 474 877 43,000  Level Denver Center
Tue 19:26:08 40.1989 -102.2556 67° East 475 880 43,000  Level Denver Center
Tue 19:27:10 40.2564 -102.0769 67° East 477 884 43,000  Level Denver Center
Tue 19:28:12 40.3067 -101.9247 67° East 475 880 43,000  Level Denver Center
Tue 19:29:14 40.3631 -101.7453 68° East 477 884 43,000  Level Denver Center
Tue 19:30:16 40.4106 -101.5911 68° East 477 884 43,000  Level Denver Center
Tue 19:31:18 40.4675 -101.4128 67° East 475 880 43,000  Level Denver Center
Tue 19:32:20 40.5161 -101.2589 67° East 476 882 43,000  Level Denver Center
Tue 19:33:22 40.5711 -101.0783 68° East 479 887 43,000  Level Denver Center
Tue 19:34:24 40.6192 -100.9228 68° East 482 893 43,000  Level Denver Center
Tue 19:35:26 40.6753 -100.7408 68° East 485 898 43,000  Level Denver Center
Tue 19:36:28 40.7236 -100.5856 68° East 489 906 43,000  Level Denver Center
Tue 19:37:31 40.7789 -100.4039 68° East 481 892 43,000  Level Denver Center
Tue 19:38:33 40.8264 -100.2478 68° East 483 895 43,000  Level Denver Center
Tue 19:39:35 40.8817 -100.0636 68° East 484 896 43,000  Level Denver Center
Tue 19:40:37 40.9286 -99.9061 68° East 483 895 43,000  Level Denver Center
Tue 19:41:39 40.9781 -99.7389 69° East 485 898 43,000  Level Denver Center
Tue 19:42:41 41.0269 -99.5742 68° East 482 893 43,000  Level Denver Center
Tue 19:43:43 41.0758 -99.4072 69° East 484 896 43,000  Level Denver Center
Tue 19:44:45 41.1342 -99.2050 69° East 487 901 43,000  Level Denver Center
Tue 19:45:47 41.1844 -99.0306 69° East 485 898 43,000  Level Denver Center
Tue 19:46:49 41.2314 -98.8703 69° East 488 904 43,000  Level Denver Center
Tue 19:47:25 41.2553 -98.7897 68° East 493 912 43,000  Level Minneapolis Center
Tue 19:48:27 41.3117 -98.5878 70° East 491 909 43,000  Level Minneapolis Center
Tue 19:49:41 41.3589 -98.4147 70° East 489 906 43,000  Level Minneapolis Center
Tue 19:50:44 41.4017 -98.2064 75° East 485 898 43,000  Level Minneapolis Center
Tue 19:51:58 41.4358 -97.9950 78° East 490 908 43,000  Level Minneapolis Center
Tue 19:53:00 41.4664 -97.8161 77° East 493 912 43,000  Level Minneapolis Center
Tue 19:54:02 41.5011 -97.6019 78° East 493 912 43,000  Level Minneapolis Center
Tue 19:55:04 41.5314 -97.4203 77° East 498 922 43,000  Level Minneapolis Center
Tue 19:56:06 41.5594 -97.2392 78° East 499 924 43,000  Level Minneapolis Center
Tue 19:57:09 41.5883 -97.0556 78° East 502 930 43,000  Level Minneapolis Center
Tue 19:58:11 41.6169 -96.8736 78° East 500 925 43,000  Level Minneapolis Center
Tue 19:59:13 41.6461 -96.6922 78° East 499 924 43,000  Level Minneapolis Center
Tue 20:00:15 41.6731 -96.5089 79° East 499 924 43,000  Level Minneapolis Center
Tue 20:01:29 41.7131 -96.2506 78° East 502 930 43,000  Level Minneapolis Center
Tue 20:02:31 41.7394 -96.0658 79° East 500 925 43,000  Level Minneapolis Center
Tue 20:03:33 41.7675 -95.8819 78° East 499 924 43,000  Level Minneapolis Center
Tue 20:04:35 41.7931 -95.6997 79° East 496 919 43,000 -48 Level Minneapolis Center
Tue 20:05:37 41.8192 -95.5167 79° East 497 921 42,900 -339 Descending Minneapolis Center
Tue 20:06:39 41.8461 -95.3331 79° East 499 924 42,300 -726 Descending Minneapolis Center
Tue 20:07:41 41.8728 -95.1461 79° East 504 933 41,400 -629 Descending Minneapolis Center
Tue 20:08:43 41.8981 -94.9586 80° East 509 943 41,000 -194 Descending Minneapolis Center
Tue 20:09:45 41.9278 -94.7339 80° East 507 938 41,000 -484 Level Minneapolis Center
Tue 20:10:47 41.9481 -94.5842 80° East 508 941 40,000 -1,065 Descending Minneapolis Center
Tue 20:11:49 41.9786 -94.3614 79° East 504 933 38,800 -1,065 Descending Minneapolis Center
Tue 20:12:51 42.0036 -94.1756 80° East 503 932 37,800 -871 Descending Minneapolis Center
Tue 20:13:53 42.0283 -93.9872 80° East 508 941 37,000 -387 Descending Minneapolis Center
Tue 20:14:55 42.0536 -93.7936 80° East 505 935 37,000  Level Minneapolis Center
Tue 20:15:57 42.0783 -93.6139 79° East 497 921 37,000  Level Minneapolis Center
Tue 20:17:00 42.1058 -93.3964 80° East 496 919 37,000  Level Minneapolis Center
Tue 20:18:02 42.1269 -93.2131 81° East 498 922 37,000  Level Minneapolis Center
Tue 20:19:04 42.1492 -93.0303 81° East 500 925 37,000  Level Minneapolis Center
Tue 20:20:05 42.1678 -92.8833 80° East 502 930 37,000  Level Minneapolis Center
Tue 20:21:08 42.1942 -92.6628 81° East 503 932 37,000  Level Minneapolis Center
Tue 20:22:10 42.2197 -92.4458 81° East 498 922 37,000  Level Minneapolis Center
Tue 20:23:11 42.2400 -92.2694 81° East 491 909 37,000  Level Minneapolis Center
Tue 20:24:13 42.2603 -92.0897 81° East 489 906 37,000 -97 Level Minneapolis Center
Tue 20:25:15 42.2811 -91.9089 81° East 492 911 36,800 -677 Descending Minneapolis Center
Tue 20:26:17 42.3047 -91.6892 82° East 498 922 35,600 -919 Descending Minneapolis Center
Tue 20:27:19 42.3200 -91.5442 82° East 499 924 34,900 -823 Descending Minneapolis Center
Tue 20:28:21 42.3408 -91.3486 82° East 456 845 33,900 -968 Descending Minneapolis Center
Tue 20:29:23 42.3586 -91.1828 82° East 451 835 32,900 -871 Descending Minneapolis Center
Tue 20:30:25 42.3756 -91.0161 82° East 453 838 32,100 -358 Descending Minneapolis Center
Tue 20:31:54 42.4039 -90.7469 82° East 460 851 32,000 -119 Descending Chicago Center
Tue 20:32:56 42.4200 -90.5764 83° East 463 858 31,800 -774 Descending Chicago Center
Tue 20:33:58 42.4367 -90.4069 82° East 461 855 30,400 -1,500 Descending Chicago Center
Tue 20:35:00 42.4550 -90.2042 83° East 458 848 28,700 -1,597 Descending Chicago Center
Tue 20:36:02 42.4719 -90.0311 82° East 466 863 27,100 -823 Descending Chicago Center
Tue 20:37:04 42.4903 -89.8572 82° East 462 856 27,000 -387 Descending Chicago Center
Tue 20:38:06 42.5044 -89.6886 83° East 453 838 26,300 -1,500 Descending Chicago Center
Tue 20:39:08 42.5228 -89.4961 83° East 444 822 23,900 -2,081 Descending Chicago Center
Tue 20:40:10 42.5364 -89.3367 83° East 431 798 22,000 -1,839 Descending Chicago Center
Tue 20:41:12 42.5494 -89.1864 83° East 409 758 20,100 -1,790 Descending Chicago Center
Tue 20:42:14 42.5694 -89.0389 80° East 400 740 18,300 -1,790 Descending Chicago Center
Tue 20:43:16 42.5958 -88.8953 76° East 394 729 16,400 -1,728 Descending Chicago Center
Tue 20:44:19 42.6219 -88.7572 76° East 382 708 14,700 -1,790 Descending Chicago Center
Tue 20:45:20 42.6494 -88.6031 76° East 364 674 12,700 -1,707 Descending Chicago Center
Tue 20:46:22 42.6714 -88.4875 75° East 324 600 11,200 -1,355 Descending Chicago Center
Tue 20:47:24 42.6906 -88.3792 76° East 301 557 9,900 -1,452 Descending Chicago Center
Tue 20:48:26 42.6744 -88.2794 102° East 288 533 8,200 -1,694 Descending Chicago Center
Tue 20:49:28 42.6211 -88.2056 134° Southeast 277 513 6,400 -2,032 Descending Chicago Center
Tue 20:50:30 42.5344 -88.1700 163° South 278 515 4,000 -1,161 Descending Chicago Center
Tue 20:51:32 42.4706 -88.1419 162° South 249 462 4,000  Level Chicago Center
Tue 20:52:34 42.4097 -88.1222 167° South 231 428 4,000 -145 Level Chicago Center
Tue 20:53:36 42.3508 -88.1047 168° South 220 407 3,700 -435 Descending Chicago Center
Tue 20:54:38 42.3075 -88.0594 142° Southeast 200 370 3,100 -581 Descending Chicago Center
Tue 20:55:40 42.3325 -88.0022 59° Northeast 190 352 2,500 -339 Descending Chicago Center
Tue 20:56:42 42.3664 -87.9536 47° Northeast 179 332 2,400 -97 Descending Chicago Center

Login

Don't have an account? Register now (free) for customized features, flight alerts, and more!